createdAt,value
2023-04-04T00:01:32.784Z,103294.25
2023-04-04T00:03:34.387Z,103286.31
2023-04-04T00:05:36.355Z,103289.66
2023-04-04T00:07:37.909Z,103299.25
2023-04-04T00:09:39.383Z,103295.56
2023-04-04T00:11:41.810Z,103291.91
2023-04-04T00:13:43.415Z,103288.34
2023-04-04T00:15:44.903Z,103289.16
2023-04-04T00:17:46.606Z,103283.00
2023-04-04T00:19:48.089Z,103284.63
2023-04-04T00:21:50.360Z,103281.88
2023-04-04T00:23:54.532Z,103285.22
2023-04-04T00:25:56.002Z,103275.56
2023-04-04T00:28:00.752Z,103273.63
2023-04-04T00:30:02.707Z,103278.69
2023-04-04T00:32:04.274Z,103269.91
2023-04-04T00:34:05.735Z,103271.47
2023-04-04T00:36:07.842Z,103267.81
2023-04-04T00:38:09.346Z,103266.78
2023-04-04T00:40:11.018Z,103264.91
2023-04-04T00:42:12.808Z,103261.16
2023-04-04T00:44:14.379Z,103260.94
2023-04-04T00:46:17.608Z,103260.69
2023-04-04T00:48:20.783Z,103263.81
2023-04-04T00:50:22.269Z,103261.94
2023-04-04T00:52:24.018Z,103254.72
2023-04-04T00:54:25.567Z,103258.81
2023-04-04T00:56:27.151Z,103252.63
2023-04-04T00:58:29.915Z,103257.75
2023-04-04T01:00:34.771Z,103248.91
2023-04-04T01:02:36.879Z,103252.13
2023-04-04T01:04:38.883Z,103252.88
2023-04-04T01:06:40.596Z,103249.28
2023-04-04T01:08:43.547Z,103241.19
2023-04-04T01:10:45.077Z,103243.69
2023-04-04T01:12:47.557Z,103241.91
2023-04-04T01:14:49.035Z,103243.47
2023-04-04T01:16:51.574Z,103233.00
2023-04-04T01:18:54.876Z,103224.16
2023-04-04T01:21:09.993Z,103229.25
2023-04-04T01:23:12.777Z,103230.88
2023-04-04T01:25:14.859Z,103231.69
2023-04-04T01:27:16.295Z,103234.38
2023-04-04T01:29:17.898Z,103228.22
2023-04-04T01:31:28.180Z,103226.50
2023-04-04T01:33:34.628Z,103229.09
2023-04-04T01:35:47.377Z,103232.59
2023-04-04T01:37:52.682Z,103233.41
2023-04-04T01:39:59.303Z,103227.31
2023-04-04T01:42:03.126Z,103228.13
2023-04-04T01:44:04.817Z,103230.72
2023-04-04T01:46:06.808Z,103234.13
2023-04-04T01:48:09.115Z,103233.25
2023-04-04T01:50:11.817Z,103226.19
2023-04-04T01:52:13.630Z,103225.22
2023-04-04T01:54:15.470Z,103220.75
2023-04-04T01:56:16.985Z,103216.28
2023-04-04T01:58:18.437Z,103215.41
2023-04-04T02:00:19.931Z,103212.72
2023-04-04T02:02:21.567Z,103206.59
2023-04-04T02:04:23.259Z,103209.13
2023-04-04T02:06:24.806Z,103204.66
2023-04-04T02:08:26.274Z,103207.16
2023-04-04T02:10:27.745Z,103207.09
2023-04-04T02:12:29.252Z,103198.41
2023-04-04T02:14:30.715Z,103196.63
2023-04-04T02:16:32.193Z,103199.22
2023-04-04T02:18:34.401Z,103204.34
2023-04-04T02:20:35.882Z,103204.34
2023-04-04T02:22:37.355Z,103202.47
2023-04-04T02:24:38.814Z,103198.97
2023-04-04T02:26:40.592Z,103204.91
2023-04-04T02:28:42.308Z,103202.16
2023-04-04T02:30:43.856Z,103208.16
2023-04-04T02:32:45.312Z,103209.84
2023-04-04T02:34:46.889Z,103202.78
2023-04-04T02:36:48.458Z,103201.91
2023-04-04T02:38:49.947Z,103202.72
2023-04-04T02:40:51.701Z,103200.84
2023-04-04T02:42:53.161Z,103203.34
2023-04-04T02:44:54.911Z,103194.59
2023-04-04T02:46:57.706Z,103186.66
2023-04-04T02:48:59.194Z,103201.25
2023-04-04T02:51:00.730Z,103194.09
2023-04-04T02:53:03.198Z,103193.00
2023-04-04T02:55:05.621Z,103198.03
2023-04-04T02:57:07.424Z,103195.38
2023-04-04T02:59:09.012Z,103195.38
2023-04-04T03:01:10.690Z,103195.19
2023-04-04T03:03:12.393Z,103189.13
2023-04-04T03:05:13.986Z,103188.13
2023-04-04T03:07:15.587Z,103185.38
2023-04-04T03:09:17.294Z,103187.06
2023-04-04T03:11:21.287Z,103183.59
2023-04-04T03:13:23.015Z,103173.94
2023-04-04T03:15:25.872Z,103177.25
2023-04-04T03:17:27.527Z,103175.47
2023-04-04T03:19:29.402Z,103172.81
2023-04-04T03:21:31.272Z,103170.94
2023-04-04T03:23:32.758Z,103169.88
2023-04-04T03:25:34.210Z,103170.75
2023-04-04T03:27:35.960Z,103168.00
2023-04-04T03:29:37.630Z,103166.94
2023-04-04T03:31:39.258Z,103167.84
2023-04-04T03:33:42.611Z,103165.31
2023-04-04T03:35:44.331Z,103160.22
2023-04-04T03:37:46.048Z,103159.25
2023-04-04T03:39:47.840Z,103158.44
2023-04-04T03:41:49.381Z,103164.53
2023-04-04T03:43:50.907Z,103156.75
2023-04-04T03:45:52.389Z,103154.16
2023-04-04T03:47:54.216Z,103155.84
2023-04-04T03:49:56.118Z,103153.09
2023-04-04T03:51:58.140Z,103154.78
2023-04-04T03:53:59.660Z,103161.59
2023-04-04T03:56:01.451Z,103153.72
2023-04-04T03:58:02.988Z,103154.53
2023-04-04T04:00:04.912Z,103157.03
2023-04-04T04:02:06.907Z,103153.44
2023-04-04T04:04:08.485Z,103149.19
2023-04-04T04:06:09.959Z,103157.72
2023-04-04T04:08:11.712Z,103155.94
2023-04-04T04:10:14.333Z,103154.16
2023-04-04T04:12:15.854Z,103158.47
2023-04-04T04:14:17.955Z,103148.97
2023-04-04T04:16:19.604Z,103152.38
2023-04-04T04:18:21.306Z,103147.19
2023-04-04T04:20:23.154Z,103153.28
2023-04-04T04:22:24.655Z,103160.25
2023-04-04T04:24:26.156Z,103159.34
2023-04-04T04:26:27.701Z,103158.53
2023-04-04T04:28:34.101Z,103156.03
2023-04-04T04:30:36.115Z,103148.38
2023-04-04T04:32:37.725Z,103148.38
2023-04-04T04:34:39.196Z,103141.41
2023-04-04T04:36:41.030Z,103145.78
2023-04-04T04:38:42.856Z,103138.81
2023-04-04T04:40:44.326Z,103134.59
2023-04-04T04:42:46.441Z,103143.28
2023-04-04T04:44:47.978Z,103150.16
2023-04-04T04:46:49.469Z,103147.56
2023-04-04T04:48:51.087Z,103150.16
2023-04-04T04:50:52.599Z,103155.34
2023-04-04T04:52:54.106Z,103160.53
2023-04-04T04:54:55.981Z,103156.16
2023-04-04T04:56:57.664Z,103155.94
2023-04-04T04:58:59.254Z,103159.34
2023-04-04T05:01:01.111Z,103160.25
2023-04-04T05:03:02.707Z,103155.06
2023-04-04T05:05:04.938Z,103155.94
2023-04-04T05:07:08.290Z,103161.94
2023-04-04T05:09:09.790Z,103163.81
2023-04-04T05:11:11.255Z,103164.53
2023-04-04T05:13:14.014Z,103167.94
2023-04-04T05:15:15.630Z,103173.13
2023-04-04T05:17:17.141Z,103169.63
2023-04-04T05:19:18.660Z,103178.31
2023-04-04T05:21:20.234Z,103176.53
2023-04-04T05:23:22.276Z,103180.91
2023-04-04T05:25:23.805Z,103174.91
2023-04-04T05:27:25.887Z,103174.91
2023-04-04T05:29:28.018Z,103183.66
2023-04-04T05:31:29.564Z,103186.25
2023-04-04T05:33:31.162Z,103184.69
2023-04-04T05:35:32.707Z,103179.66
2023-04-04T05:37:34.881Z,103190.19
2023-04-04T05:39:37.784Z,103189.41
2023-04-04T05:41:39.437Z,103184.38
2023-04-04T05:43:40.920Z,103186.31
2023-04-04T05:45:42.639Z,103183.09
2023-04-04T05:47:44.822Z,103187.72
2023-04-04T05:49:46.379Z,103192.44
2023-04-04T05:51:47.858Z,103195.38
2023-04-04T05:53:49.361Z,103192.25
2023-04-04T05:55:53.876Z,103187.38
2023-04-04T05:57:56.773Z,103187.88
2023-04-04T05:59:58.707Z,103187.38
2023-04-04T06:02:00.220Z,103186.06
2023-04-04T06:04:01.711Z,103193.38
2023-04-04T06:06:04.664Z,103191.13
2023-04-04T06:08:06.492Z,103187.16
2023-04-04T06:10:08.889Z,103192.66
2023-04-04T06:12:10.525Z,103183.41
2023-04-04T06:14:13.933Z,103185.41
2023-04-04T06:16:17.029Z,103189.97
2023-04-04T06:18:18.743Z,103189.38
2023-04-04T06:20:22.618Z,103183.53
2023-04-04T06:22:24.156Z,103184.56
2023-04-04T06:24:25.658Z,103181.97
2023-04-04T06:26:27.187Z,103185.66
2023-04-04T06:28:28.818Z,103191.00
2023-04-04T06:30:30.648Z,103191.06
2023-04-04T06:32:32.361Z,103184.53
2023-04-04T06:34:33.843Z,103188.28
2023-04-04T06:36:35.346Z,103196.13
2023-04-04T06:38:37.000Z,103190.44
2023-04-04T06:40:39.110Z,103195.19
2023-04-04T06:42:49.425Z,103193.81
2023-04-04T06:44:51.046Z,103189.81
2023-04-04T06:46:52.950Z,103195.97
2023-04-04T06:48:54.950Z,103196.84
2023-04-04T06:50:56.578Z,103194.56
2023-04-04T06:52:58.192Z,103192.16
2023-04-04T06:54:59.657Z,103192.25
2023-04-04T06:57:01.318Z,103192.31
2023-04-04T06:59:03.474Z,103195.22
2023-04-04T07:01:05.102Z,103189.34
2023-04-04T07:03:06.622Z,103201.66
2023-04-04T07:05:08.573Z,103200.09
2023-04-04T07:07:10.037Z,103195.06
2023-04-04T07:09:21.925Z,103195.22
2023-04-04T07:11:29.078Z,103193.72
2023-04-04T07:13:30.569Z,103191.25
2023-04-04T07:15:32.085Z,103183.59
2023-04-04T07:17:37.874Z,103189.91
2023-04-04T07:19:39.460Z,103187.59
2023-04-04T07:21:40.917Z,103184.38
2023-04-04T07:23:42.433Z,103184.66
2023-04-04T07:25:44.517Z,103188.34
2023-04-04T07:27:46.284Z,103187.69
2023-04-04T07:29:47.748Z,103180.97
2023-04-04T07:31:49.290Z,103187.41
2023-04-04T07:33:53.954Z,103184.94
2023-04-04T07:35:55.428Z,103190.44
2023-04-04T07:37:57.983Z,103184.47
2023-04-04T07:39:59.672Z,103182.88
2023-04-04T07:42:01.397Z,103183.16
2023-04-04T07:44:02.911Z,103180.69
2023-04-04T07:46:04.511Z,103187.84
2023-04-04T07:48:06.353Z,103183.34
2023-04-04T07:50:08.178Z,103180.22
2023-04-04T07:52:09.893Z,103185.63
2023-04-04T07:54:11.382Z,103183.97
2023-04-04T07:56:12.832Z,103184.25
2023-04-04T07:58:14.427Z,103186.28
2023-04-04T08:00:17.634Z,103183.88
2023-04-04T08:02:19.133Z,103180.63
2023-04-04T08:04:20.755Z,103173.94
2023-04-04T08:06:22.572Z,103168.13
2023-04-04T08:08:24.167Z,103170.09
2023-04-04T08:10:25.721Z,103173.66
2023-04-04T08:12:27.817Z,103165.13
2023-04-04T08:14:29.463Z,103175.75
2023-04-04T08:16:31.223Z,103169.81
2023-04-04T08:18:33.564Z,103176.13
2023-04-04T08:20:35.748Z,103185.03
2023-04-04T08:22:37.212Z,103174.63
2023-04-04T08:24:38.670Z,103180.81
2023-04-04T08:26:40.158Z,103174.16
2023-04-04T08:28:41.694Z,103172.63
2023-04-04T08:30:43.243Z,103170.19
2023-04-04T08:32:45.930Z,103170.13
2023-04-04T08:34:48.086Z,103165.03
2023-04-04T08:36:49.541Z,103165.31
2023-04-04T08:38:51.305Z,103162.16
2023-04-04T08:40:53.560Z,103161.63
2023-04-04T08:42:55.570Z,103160.22
2023-04-04T08:44:59.467Z,103153.50
2023-04-04T08:47:05.294Z,103157.31
2023-04-04T08:49:07.242Z,103157.47
2023-04-04T08:51:12.202Z,103151.25
2023-04-04T08:53:14.417Z,103153.91
2023-04-04T08:55:16.692Z,103153.06
2023-04-04T08:57:18.190Z,103149.56
2023-04-04T08:59:20.913Z,103148.69
2023-04-04T09:01:22.917Z,103155.97
2023-04-04T09:03:27.314Z,103150.13
2023-04-04T09:05:29.350Z,103152.97
2023-04-04T09:07:32.046Z,103152.38
2023-04-04T09:09:34.330Z,103153.59
2023-04-04T09:11:36.789Z,103144.44
2023-04-04T09:13:41.388Z,103140.53
2023-04-04T09:15:47.190Z,103141.47
2023-04-04T09:17:49.046Z,103140.59
2023-04-04T09:19:50.818Z,103138.09
2023-04-04T09:21:52.287Z,103139.78
2023-04-04T09:24:01.999Z,103140.91
2023-04-04T09:26:04.631Z,103137.78
2023-04-04T09:28:06.498Z,103131.91
2023-04-04T09:30:09.502Z,103135.75
2023-04-04T09:32:16.280Z,103136.09
2023-04-04T09:34:19.115Z,103135.34
2023-04-04T09:36:21.037Z,103136.28
2023-04-04T09:38:25.227Z,103127.91
2023-04-04T09:40:30.039Z,103123.72
2023-04-04T09:42:32.701Z,103131.53
2023-04-04T09:44:36.896Z,103128.72
2023-04-04T09:46:39.752Z,103134.88
2023-04-04T09:48:50.861Z,103128.75
2023-04-04T09:50:52.341Z,103128.91
2023-04-04T09:52:56.927Z,103122.97
2023-04-04T09:55:00.012Z,103124.03
2023-04-04T09:57:01.710Z,103122.25
2023-04-04T09:59:05.090Z,103121.78
2023-04-04T10:01:10.159Z,103117.56
2023-04-04T10:03:14.162Z,103123.13
2023-04-04T10:05:16.895Z,103115.56
2023-04-04T10:07:18.558Z,103123.94
2023-04-04T10:09:20.122Z,103119.97
2023-04-04T10:11:33.568Z,103124.59
2023-04-04T10:13:36.883Z,103128.31
2023-04-04T10:15:38.536Z,103122.19
2023-04-04T10:17:41.700Z,103116.38
2023-04-04T10:19:44.158Z,103119.94
2023-04-04T10:21:47.779Z,103118.19
2023-04-04T10:23:49.689Z,103118.28
2023-04-04T10:25:52.456Z,103122.88
2023-04-04T10:27:53.948Z,103122.38
2023-04-04T10:29:56.675Z,103113.97
2023-04-04T10:32:06.216Z,103122.94
2023-04-04T10:34:40.112Z,103118.75
2023-04-04T10:36:58.275Z,103107.81
2023-04-04T10:39:13.348Z,103102.81
2023-04-04T10:41:15.990Z,103092.66
2023-04-04T10:43:25.004Z,103091.78
2023-04-04T10:45:26.931Z,103090.16
2023-04-04T10:47:30.751Z,103098.47
2023-04-04T10:49:33.438Z,103085.72
2023-04-04T10:51:45.178Z,103097.69
2023-04-04T10:53:54.888Z,103078.94
2023-04-04T10:55:56.708Z,103079.22
2023-04-04T10:57:59.092Z,103069.97
2023-04-04T11:00:10.524Z,103068.69
2023-04-04T11:02:12.130Z,103070.09
2023-04-04T11:04:21.885Z,103065.41
2023-04-04T11:06:24.729Z,103061.53
2023-04-04T11:08:28.653Z,103063.81
2023-04-04T11:10:33.331Z,103059.66
2023-04-04T11:12:45.171Z,103064.22
2023-04-04T11:15:02.446Z,103064.31
2023-04-04T11:17:05.431Z,103067.06
2023-04-04T11:19:09.144Z,103064.50
2023-04-04T11:21:24.754Z,103067.16
2023-04-04T11:23:27.494Z,103057.28
2023-04-04T11:25:31.030Z,103055.38
2023-04-04T11:27:32.540Z,103050.84
2023-04-04T11:29:52.439Z,103053.50
2023-04-04T11:31:54.216Z,103043.69
2023-04-04T11:34:14.556Z,103046.19
2023-04-04T11:36:37.743Z,103046.97
2023-04-04T11:38:40.326Z,103045.28
2023-04-04T11:40:44.745Z,103046.97
2023-04-04T11:42:52.495Z,103041.41
2023-04-04T11:44:59.930Z,103032.31
2023-04-04T11:47:09.099Z,103030.59
2023-04-04T11:49:11.394Z,103034.78
2023-04-04T11:51:13.789Z,103037.19
2023-04-04T11:53:15.842Z,103022.78
2023-04-04T11:55:22.827Z,103026.06
2023-04-04T11:57:24.316Z,103021.00
2023-04-04T11:59:25.784Z,103025.88
2023-04-04T12:01:27.551Z,103028.16
2023-04-04T12:03:30.012Z,103020.66
2023-04-04T12:05:31.968Z,103015.50
2023-04-04T12:07:35.276Z,103010.84
2023-04-04T12:09:37.315Z,103009.31
2023-04-04T12:11:39.696Z,103003.53
2023-04-04T12:13:44.780Z,103001.88
2023-04-04T12:15:48.040Z,103008.38
2023-04-04T12:17:51.265Z,103002.59
2023-04-04T12:19:53.120Z,102994.75
2023-04-04T12:21:54.715Z,102996.25
2023-04-04T12:23:56.536Z,102993.19
2023-04-04T12:25:58.563Z,102992.44
2023-04-04T12:28:02.602Z,102983.66
2023-04-04T12:30:06.944Z,102985.34
2023-04-04T12:32:10.768Z,102982.75
2023-04-04T12:34:19.551Z,102976.72
2023-04-04T12:36:21.266Z,102972.16
2023-04-04T12:38:22.895Z,102966.47
2023-04-04T12:40:24.455Z,102971.16
2023-04-04T12:42:26.420Z,102971.34
2023-04-04T12:44:33.576Z,102966.88
2023-04-04T12:46:39.626Z,102958.06
2023-04-04T12:48:41.681Z,102953.53
2023-04-04T12:50:51.947Z,102947.09
2023-04-04T12:53:13.579Z,102942.47
2023-04-04T12:55:21.776Z,102928.81
2023-04-04T12:57:25.575Z,102935.66
2023-04-04T12:59:34.598Z,102936.41
2023-04-04T13:01:37.585Z,102924.81
2023-04-04T13:03:39.238Z,102916.84
2023-04-04T13:05:43.113Z,102920.41
2023-04-04T13:07:44.912Z,102923.97
2023-04-04T13:09:58.568Z,102919.56
2023-04-04T13:12:05.818Z,102917.97
2023-04-04T13:14:07.554Z,102913.63
2023-04-04T13:16:14.729Z,102902.88
2023-04-04T13:18:24.760Z,102901.84
2023-04-04T13:20:26.765Z,102901.56
2023-04-04T13:22:35.697Z,102896.41
2023-04-04T13:24:38.671Z,102894.56
2023-04-04T13:26:41.406Z,102898.91
2023-04-04T13:28:42.929Z,102891.75
2023-04-04T13:30:48.910Z,102885.50
2023-04-04T13:32:50.945Z,102889.72
2023-04-04T13:34:52.605Z,102884.09
2023-04-04T13:36:54.356Z,102884.91
2023-04-04T13:38:55.829Z,102882.47
2023-04-04T13:40:58.568Z,102890.63
2023-04-04T13:43:00.022Z,102878.97
2023-04-04T13:45:01.532Z,102878.84
2023-04-04T13:47:03.053Z,102877.88
2023-04-04T13:49:04.580Z,102865.44
2023-04-04T13:51:06.062Z,102864.47
2023-04-04T13:53:07.798Z,102867.19
2023-04-04T13:55:10.255Z,102876.22
2023-04-04T13:57:11.747Z,102860.56
2023-04-04T13:59:13.437Z,102853.84
2023-04-04T14:01:14.955Z,102859.94
2023-04-04T14:03:17.677Z,102850.97
2023-04-04T14:05:19.890Z,102843.84
2023-04-04T14:07:21.346Z,102849.06
2023-04-04T14:09:23.030Z,102853.63
2023-04-04T14:11:25.703Z,102859.09
2023-04-04T14:13:28.433Z,102846.09
2023-04-04T14:15:29.923Z,102841.88
2023-04-04T14:17:31.405Z,102844.44
2023-04-04T14:19:33.000Z,102840.88
2023-04-04T14:21:34.857Z,102837.47
2023-04-04T14:23:36.576Z,102838.53
2023-04-04T14:25:38.325Z,102839.44
2023-04-04T14:27:40.070Z,102837.69
2023-04-04T14:29:41.899Z,102837.66
2023-04-04T14:31:43.366Z,102829.72
2023-04-04T14:33:44.852Z,102830.63
2023-04-04T14:35:46.426Z,102827.97
2023-04-04T14:37:49.097Z,102822.69
2023-04-04T14:39:50.655Z,102822.66
2023-04-04T14:41:52.205Z,102826.06
2023-04-04T14:43:53.669Z,102819.91
2023-04-04T14:45:55.479Z,102820.88
2023-04-04T14:47:56.958Z,102817.38
2023-04-04T14:49:59.055Z,102812.97
2023-04-04T14:52:01.366Z,102814.72
2023-04-04T14:54:02.856Z,102812.09
2023-04-04T14:56:04.501Z,102806.84
2023-04-04T14:58:06.021Z,102803.28
2023-04-04T15:00:08.840Z,102795.38
2023-04-04T15:02:10.335Z,102800.66
2023-04-04T15:04:11.915Z,102799.78
2023-04-04T15:06:13.508Z,102799.78
2023-04-04T15:08:15.040Z,102790.06
2023-04-04T15:10:16.578Z,102793.56
2023-04-04T15:12:18.045Z,102785.66
2023-04-04T15:14:19.518Z,102790.09
2023-04-04T15:16:21.580Z,102788.31
2023-04-04T15:18:23.087Z,102787.41
2023-04-04T15:20:24.661Z,102790.06
2023-04-04T15:22:26.287Z,102779.47
2023-04-04T15:24:27.760Z,102787.44
2023-04-04T15:26:29.303Z,102778.63
2023-04-04T15:28:31.031Z,102787.41
2023-04-04T15:30:33.367Z,102781.28
2023-04-04T15:32:34.893Z,102786.53
2023-04-04T15:34:36.645Z,102782.13
2023-04-04T15:36:38.157Z,102772.44
2023-04-04T15:38:40.144Z,102782.13
2023-04-04T15:40:42.094Z,102774.22
2023-04-04T15:42:44.550Z,102771.56
2023-04-04T15:44:46.119Z,102767.16
2023-04-04T15:46:47.805Z,102775.97
2023-04-04T15:48:51.887Z,102767.16
2023-04-04T15:51:03.291Z,102772.47
2023-04-04T15:53:04.809Z,102763.66
2023-04-04T15:55:14.466Z,102770.69
2023-04-04T15:57:16.083Z,102768.06
2023-04-04T15:59:17.575Z,102768.06
2023-04-04T16:01:19.187Z,102762.75
2023-04-04T16:03:20.948Z,102763.66
2023-04-04T16:05:22.545Z,102765.41
2023-04-04T16:07:24.003Z,102762.78
2023-04-04T16:09:25.498Z,102768.91
2023-04-04T16:11:27.431Z,102762.75
2023-04-04T16:13:29.558Z,102770.69
2023-04-04T16:15:31.106Z,102767.16
2023-04-04T16:17:33.315Z,102760.09
2023-04-04T16:19:34.866Z,102760.03
2023-04-04T16:21:36.474Z,102767.94
2023-04-04T16:23:39.089Z,102761.81
2023-04-04T16:25:40.758Z,102763.56
2023-04-04T16:27:42.222Z,102758.28
2023-04-04T16:29:43.681Z,102764.47
2023-04-04T16:31:45.224Z,102764.44
2023-04-04T16:33:47.699Z,102759.16
2023-04-04T16:35:49.522Z,102758.25
2023-04-04T16:37:51.320Z,102760.00
2023-04-04T16:39:52.929Z,102763.50
2023-04-04T16:41:54.447Z,102766.97
2023-04-04T16:43:55.994Z,102768.72
2023-04-04T16:45:57.474Z,102764.31
2023-04-04T16:47:59.065Z,102759.88
2023-04-04T16:50:01.340Z,102757.19
2023-04-04T16:52:02.812Z,102758.03
2023-04-04T16:54:04.505Z,102751.78
2023-04-04T16:56:05.998Z,102757.06
2023-04-04T16:58:07.494Z,102752.66
2023-04-04T17:00:10.105Z,102745.59
2023-04-04T17:02:11.746Z,102748.22
2023-04-04T17:04:13.276Z,102745.53
2023-04-04T17:06:14.847Z,102745.53
2023-04-04T17:08:16.343Z,102746.38
2023-04-04T17:10:19.280Z,102741.94
2023-04-04T17:12:20.945Z,102743.59
2023-04-04T17:14:22.531Z,102735.66
2023-04-04T17:16:24.088Z,102735.63
2023-04-04T17:18:25.635Z,102728.56
2023-04-04T17:20:29.840Z,102735.56
2023-04-04T17:22:32.183Z,102733.78
2023-04-04T17:24:33.671Z,102729.34
2023-04-04T17:26:35.276Z,102722.31
2023-04-04T17:28:37.423Z,102725.81
2023-04-04T17:30:39.215Z,102723.13
2023-04-04T17:32:43.106Z,102721.28
2023-04-04T17:34:44.870Z,102723.03
2023-04-04T17:36:46.467Z,102725.59
2023-04-04T17:38:47.946Z,102724.69
2023-04-04T17:40:49.780Z,102717.63
2023-04-04T17:42:51.361Z,102727.22
2023-04-04T17:44:52.925Z,102728.97
2023-04-04T17:46:55.348Z,102723.66
2023-04-04T17:48:56.962Z,102721.00
2023-04-04T17:50:58.647Z,102721.78
2023-04-04T17:53:01.971Z,102719.94
2023-04-04T17:55:04.168Z,102726.84
2023-04-04T17:57:07.203Z,102715.22
2023-04-04T17:59:08.741Z,102716.59
2023-04-04T18:01:10.518Z,102725.06
2023-04-04T18:03:12.849Z,102725.50
2023-04-04T18:05:14.829Z,102726.09
2023-04-04T18:07:17.080Z,102727.88
2023-04-04T18:09:18.640Z,102731.91
2023-04-04T18:11:20.208Z,102737.72
2023-04-04T18:13:21.937Z,102728.84
2023-04-04T18:15:26.525Z,102736.41
2023-04-04T18:17:28.434Z,102737.19
2023-04-04T18:19:30.263Z,102733.41
2023-04-04T18:21:31.731Z,102738.69
2023-04-04T18:23:33.186Z,102737.13
2023-04-04T18:25:34.824Z,102744.78
2023-04-04T18:27:36.373Z,102731.59
2023-04-04T18:29:37.829Z,102741.22
2023-04-04T18:31:39.363Z,102745.41
2023-04-04T18:33:40.880Z,102744.34
2023-04-04T18:35:42.390Z,102742.34
2023-04-04T18:37:43.900Z,102750.34
2023-04-04T18:39:45.477Z,102743.28
2023-04-04T18:41:47.092Z,102742.41
2023-04-04T18:43:48.605Z,102745.84
2023-04-04T18:45:50.213Z,102736.94
2023-04-04T18:47:51.770Z,102734.34
2023-04-04T18:49:53.316Z,102743.03
2023-04-04T18:51:54.839Z,102746.50
2023-04-04T18:53:56.341Z,102749.09
2023-04-04T18:55:58.311Z,102747.25
2023-04-04T18:57:59.915Z,102741.09
2023-04-04T19:00:01.621Z,102746.28
2023-04-04T19:02:03.118Z,102750.34
2023-04-04T19:04:05.942Z,102746.63
2023-04-04T19:06:11.185Z,102757.13
2023-04-04T19:08:15.134Z,102753.56
2023-04-04T19:10:17.977Z,102755.28
2023-04-04T19:12:19.453Z,102748.28
2023-04-04T19:14:20.916Z,102748.28
2023-04-04T19:16:24.072Z,102756.09
2023-04-04T19:18:26.222Z,102751.69
2023-04-04T19:20:27.703Z,102750.81
2023-04-04T19:22:29.202Z,102751.63
2023-04-04T19:24:30.696Z,102752.44
2023-04-04T19:26:32.486Z,102744.50
2023-04-04T19:28:33.979Z,102747.09
2023-04-04T19:30:47.141Z,102751.38
2023-04-04T19:32:48.712Z,102744.31
2023-04-04T19:34:50.576Z,102751.16
2023-04-04T19:36:52.034Z,102749.31
2023-04-04T19:38:54.720Z,102757.13
2023-04-04T19:40:59.133Z,102756.97
2023-04-04T19:43:00.671Z,102748.13
2023-04-04T19:45:03.924Z,102748.84
2023-04-04T19:47:06.970Z,102755.78
2023-04-04T19:49:12.439Z,102753.09
2023-04-04T19:51:16.844Z,102753.00
2023-04-04T19:53:22.724Z,102752.03
2023-04-04T19:55:39.694Z,102755.38
2023-04-04T19:57:41.338Z,102754.38
2023-04-04T19:59:56.744Z,102758.66
2023-04-04T20:02:00.786Z,102753.25
2023-04-04T20:04:08.260Z,102753.13
2023-04-04T20:06:11.606Z,102756.38
2023-04-04T20:08:14.416Z,102746.59
2023-04-04T20:10:36.275Z,102752.50
2023-04-04T20:12:37.726Z,102754.97
2023-04-04T20:14:39.197Z,102756.53
2023-04-04T20:16:41.114Z,102758.88
2023-04-04T20:18:46.526Z,102751.81
2023-04-04T20:20:56.972Z,102759.63
2023-04-04T20:22:58.674Z,102750.78
2023-04-04T20:25:01.723Z,102749.78
2023-04-04T20:27:05.871Z,102751.44
2023-04-04T20:29:14.573Z,102751.34
2023-04-04T20:31:18.121Z,102748.59
2023-04-04T20:33:36.704Z,102746.72
2023-04-04T20:35:38.261Z,102754.41
2023-04-04T20:37:39.847Z,102750.81
2023-04-04T20:39:55.734Z,102750.69
2023-04-04T20:41:57.870Z,102749.53
2023-04-04T20:43:59.796Z,102749.44
2023-04-04T20:46:01.322Z,102742.31
2023-04-04T20:48:06.843Z,102754.41
2023-04-04T20:50:17.910Z,102753.41
2023-04-04T20:52:23.314Z,102748.00
2023-04-04T20:54:24.833Z,102746.94
2023-04-04T20:56:38.048Z,102745.97
2023-04-04T20:58:39.505Z,102755.41
2023-04-04T21:00:42.334Z,102752.63
2023-04-04T21:02:44.189Z,102755.97
2023-04-04T21:04:49.483Z,102755.78
2023-04-04T21:06:51.672Z,102755.53
2023-04-04T21:08:53.120Z,102760.66
2023-04-04T21:10:56.116Z,102750.97
2023-04-04T21:13:00.938Z,102751.66
2023-04-04T21:15:03.294Z,102752.25
2023-04-04T21:17:06.940Z,102755.59
2023-04-04T21:19:11.759Z,102753.63
2023-04-04T21:21:18.950Z,102749.00
2023-04-04T21:23:32.942Z,102745.50
2023-04-04T21:25:44.581Z,102747.13
2023-04-04T21:27:55.183Z,102745.25
2023-04-04T21:29:56.708Z,102752.06
2023-04-04T21:31:59.043Z,102747.53
2023-04-04T21:34:07.776Z,102752.13
2023-04-04T21:36:24.542Z,102756.31
2023-04-04T21:38:32.017Z,102756.41
2023-04-04T21:40:33.549Z,102750.31
2023-04-04T21:42:35.007Z,102751.97
2023-04-04T21:44:36.563Z,102748.38
2023-04-04T21:46:40.489Z,102750.00
2023-04-04T21:48:42.332Z,102748.94
2023-04-04T21:50:43.752Z,102746.28
2023-04-04T21:52:45.246Z,102744.44
2023-04-04T21:54:46.685Z,102742.56
2023-04-04T21:56:48.152Z,102741.63
2023-04-04T21:58:49.701Z,102744.13
2023-04-04T22:00:52.135Z,102737.97
2023-04-04T22:02:53.686Z,102737.78
2023-04-04T22:04:56.178Z,102744.59
2023-04-04T22:06:58.365Z,102731.41
2023-04-04T22:09:01.912Z,102735.59
2023-04-04T22:11:04.034Z,102727.63
2023-04-04T22:13:05.479Z,102721.47
2023-04-04T22:15:08.546Z,102724.91
2023-04-04T22:17:22.962Z,102737.00
2023-04-04T22:19:24.426Z,102731.66
2023-04-04T22:21:26.202Z,102728.94
2023-04-04T22:23:27.719Z,102737.53
2023-04-04T22:25:29.173Z,102727.88
2023-04-04T22:27:32.585Z,102723.47
2023-04-04T22:29:34.034Z,102724.22
2023-04-04T22:31:37.584Z,102726.78
2023-04-04T22:33:39.635Z,102730.94
2023-04-04T22:35:41.431Z,102726.50
2023-04-04T22:37:45.861Z,102718.66
2023-04-04T22:39:50.751Z,102728.06
2023-04-04T22:41:52.209Z,102723.56
2023-04-04T22:43:53.715Z,102720.84
2023-04-04T22:45:55.405Z,102716.41
2023-04-04T22:47:58.122Z,102715.41
2023-04-04T22:50:04.682Z,102709.19
2023-04-04T22:52:12.877Z,102719.47
2023-04-04T22:54:15.535Z,102714.16
2023-04-04T22:56:17.041Z,102709.72
2023-04-04T22:58:19.574Z,102707.94
2023-04-04T23:00:21.189Z,102706.19
2023-04-04T23:02:22.676Z,102711.25
2023-04-04T23:04:24.157Z,102704.16
2023-04-04T23:06:25.690Z,102710.19
2023-04-04T23:08:27.142Z,102714.41
2023-04-04T23:10:28.824Z,102704.72
2023-04-04T23:12:30.866Z,102707.25
2023-04-04T23:14:38.663Z,102700.97
2023-04-04T23:16:42.321Z,102708.66
2023-04-04T23:18:43.790Z,102703.34
2023-04-04T23:20:45.638Z,102711.91
2023-04-04T23:22:47.131Z,102710.00
2023-04-04T23:24:48.677Z,102707.28